sensor_id;sensor_type;location;lat;lon;timestamp;temperature;humidity
5930;DHT22;2990;48.746;9.236;2023-04-29T00:02:14;12.90;99.90
5930;DHT22;2990;48.746;9.236;2023-04-29T00:04:40;12.90;99.90
5930;DHT22;2990;48.746;9.236;2023-04-29T00:07:05;12.90;99.90
5930;DHT22;2990;48.746;9.236;2023-04-29T00:09:33;12.90;99.90
5930;DHT22;2990;48.746;9.236;2023-04-29T00:11:58;12.90;99.90
5930;DHT22;2990;48.746;9.236;2023-04-29T00:14:27;13.00;99.90
5930;DHT22;2990;48.746;9.236;2023-04-29T00:16:53;12.90;99.90
5930;DHT22;2990;48.746;9.236;2023-04-29T00:19:18;12.90;99.90
5930;DHT22;2990;48.746;9.236;2023-04-29T00:21:45;12.90;99.90
5930;DHT22;2990;48.746;9.236;2023-04-29T00:24:11;12.90;99.90
5930;DHT22;2990;48.746;9.236;2023-04-29T00:26:36;12.90;99.90
5930;DHT22;2990;48.746;9.236;2023-04-29T00:29:02;12.80;99.90
5930;DHT22;2990;48.746;9.236;2023-04-29T00:31:28;12.80;99.90
5930;DHT22;2990;48.746;9.236;2023-04-29T00:33:54;12.80;99.90
5930;DHT22;2990;48.746;9.236;2023-04-29T00:36:20;12.80;99.90
5930;DHT22;2990;48.746;9.236;2023-04-29T00:38:46;12.80;99.90
5930;DHT22;2990;48.746;9.236;2023-04-29T00:41:12;12.90;99.90
5930;DHT22;2990;48.746;9.236;2023-04-29T00:43:37;12.80;99.90
5930;DHT22;2990;48.746;9.236;2023-04-29T00:46:03;12.70;99.90
5930;DHT22;2990;48.746;9.236;2023-04-29T00:48:29;12.70;99.90
5930;DHT22;2990;48.746;9.236;2023-04-29T00:50:55;12.70;99.90
5930;DHT22;2990;48.746;9.236;2023-04-29T00:53:20;12.60;99.90
5930;DHT22;2990;48.746;9.236;2023-04-29T00:55:49;12.70;99.90
5930;DHT22;2990;48.746;9.236;2023-04-29T00:58:17;12.70;99.90
5930;DHT22;2990;48.746;9.236;2023-04-29T01:00:43;12.70;99.90
5930;DHT22;2990;48.746;9.236;2023-04-29T01:03:11;12.70;99.90
5930;DHT22;2990;48.746;9.236;2023-04-29T01:05:37;12.70;99.90
5930;DHT22;2990;48.746;9.236;2023-04-29T01:08:29;12.60;99.90
5930;DHT22;2990;48.746;9.236;2023-04-29T01:10:54;12.60;99.90
5930;DHT22;2990;48.746;9.236;2023-04-29T01:13:34;12.60;99.90
5930;DHT22;2990;48.746;9.236;2023-04-29T01:16:03;12.60;99.90
5930;DHT22;2990;48.746;9.236;2023-04-29T01:18:36;12.60;99.90
5930;DHT22;2990;48.746;9.236;2023-04-29T01:21:03;12.60;99.90
5930;DHT22;2990;48.746;9.236;2023-04-29T01:23:29;12.40;99.90
5930;DHT22;2990;48.746;9.236;2023-04-29T01:25:55;12.60;99.90
5930;DHT22;2990;48.746;9.236;2023-04-29T01:28:54;12.50;99.90
5930;DHT22;2990;48.746;9.236;2023-04-29T01:31:30;12.50;99.90
5930;DHT22;2990;48.746;9.236;2023-04-29T01:34:20;12.40;99.90
5930;DHT22;2990;48.746;9.236;2023-04-29T01:37:03;12.60;99.90
5930;DHT22;2990;48.746;9.236;2023-04-29T01:39:55;12.50;99.90
5930;DHT22;2990;48.746;9.236;2023-04-29T01:42:28;12.40;99.90
5930;DHT22;2990;48.746;9.236;2023-04-29T01:45:00;12.40;99.90
5930;DHT22;2990;48.746;9.236;2023-04-29T01:47:29;12.40;99.90
5930;DHT22;2990;48.746;9.236;2023-04-29T01:49:56;12.40;99.90
5930;DHT22;2990;48.746;9.236;2023-04-29T01:52:21;12.30;99.90
5930;DHT22;2990;48.746;9.236;2023-04-29T01:54:48;12.20;99.90
5930;DHT22;2990;48.746;9.236;2023-04-29T01:57:13;12.30;99.90
5930;DHT22;2990;48.746;9.236;2023-04-29T01:59:39;12.30;99.90
5930;DHT22;2990;48.746;9.236;2023-04-29T02:02:04;12.20;99.90
5930;DHT22;2990;48.746;9.236;2023-04-29T02:04:30;12.20;99.90
5930;DHT22;2990;48.746;9.236;2023-04-29T02:06:58;12.20;99.90
5930;DHT22;2990;48.746;9.236;2023-04-29T02:09:23;12.20;99.90
5930;DHT22;2990;48.746;9.236;2023-04-29T02:11:49;12.40;99.90
5930;DHT22;2990;48.746;9.236;2023-04-29T02:14:15;12.30;99.90
5930;DHT22;2990;48.746;9.236;2023-04-29T02:16:43;12.30;99.90
5930;DHT22;2990;48.746;9.236;2023-04-29T02:19:09;12.30;99.90
5930;DHT22;2990;48.746;9.236;2023-04-29T02:21:35;12.40;99.90
5930;DHT22;2990;48.746;9.236;2023-04-29T02:24:01;12.40;99.90
5930;DHT22;2990;48.746;9.236;2023-04-29T02:26:27;12.30;99.90
5930;DHT22;2990;48.746;9.236;2023-04-29T02:28:52;12.40;99.90
5930;DHT22;2990;48.746;9.236;2023-04-29T02:31:18;12.30;99.90
5930;DHT22;2990;48.746;9.236;2023-04-29T02:33:44;12.40;99.90
5930;DHT22;2990;48.746;9.236;2023-04-29T02:36:09;12.30;99.90
5930;DHT22;2990;48.746;9.236;2023-04-29T02:38:35;12.20;99.90
5930;DHT22;2990;48.746;9.236;2023-04-29T02:41:00;12.50;99.90
5930;DHT22;2990;48.746;9.236;2023-04-29T02:43:26;12.20;99.90
5930;DHT22;2990;48.746;9.236;2023-04-29T02:45:55;12.20;99.90
5930;DHT22;2990;48.746;9.236;2023-04-29T02:48:20;12.20;99.90
5930;DHT22;2990;48.746;9.236;2023-04-29T02:50:46;12.30;99.90
5930;DHT22;2990;48.746;9.236;2023-04-29T02:53:12;12.20;99.90
5930;DHT22;2990;48.746;9.236;2023-04-29T02:55:38;12.20;99.90
5930;DHT22;2990;48.746;9.236;2023-04-29T02:58:03;12.10;99.90
5930;DHT22;2990;48.746;9.236;2023-04-29T03:00:29;12.20;99.90
5930;DHT22;2990;48.746;9.236;2023-04-29T03:02:54;12.20;99.90
5930;DHT22;2990;48.746;9.236;2023-04-29T03:05:20;12.20;99.90
5930;DHT22;2990;48.746;9.236;2023-04-29T03:07:45;12.20;99.90
5930;DHT22;2990;48.746;9.236;2023-04-29T03:10:11;12.10;99.90
5930;DHT22;2990;48.746;9.236;2023-04-29T03:12:37;12.10;99.90
5930;DHT22;2990;48.746;9.236;2023-04-29T03:15:05;12.00;99.90
5930;DHT22;2990;48.746;9.236;2023-04-29T03:17:31;12.00;99.90
5930;DHT22;2990;48.746;9.236;2023-04-29T03:19:57;12.00;99.90
5930;DHT22;2990;48.746;9.236;2023-04-29T03:22:22;12.00;99.90
5930;DHT22;2990;48.746;9.236;2023-04-29T03:24:51;12.00;99.90
5930;DHT22;2990;48.746;9.236;2023-04-29T03:27:16;11.90;99.90
5930;DHT22;2990;48.746;9.236;2023-04-29T03:29:42;12.00;99.90
5930;DHT22;2990;48.746;9.236;2023-04-29T03:32:07;11.90;99.90
5930;DHT22;2990;48.746;9.236;2023-04-29T03:34:33;12.00;99.90
5930;DHT22;2990;48.746;9.236;2023-04-29T03:36:59;11.90;99.90
5930;DHT22;2990;48.746;9.236;2023-04-29T03:39:25;12.00;99.90
5930;DHT22;2990;48.746;9.236;2023-04-29T03:41:56;11.90;99.90
5930;DHT22;2990;48.746;9.236;2023-04-29T03:44:21;11.90;99.90
5930;DHT22;2990;48.746;9.236;2023-04-29T03:46:47;11.90;99.90
5930;DHT22;2990;48.746;9.236;2023-04-29T03:49:12;11.90;99.90
5930;DHT22;2990;48.746;9.236;2023-04-29T03:51:38;11.80;99.90
5930;DHT22;2990;48.746;9.236;2023-04-29T03:54:04;11.90;99.90
5930;DHT22;2990;48.746;9.236;2023-04-29T03:56:30;11.90;99.90
5930;DHT22;2990;48.746;9.236;2023-04-29T03:58:55;11.90;99.90
5930;DHT22;2990;48.746;9.236;2023-04-29T04:01:21;12.00;99.90
5930;DHT22;2990;48.746;9.236;2023-04-29T04:03:47;11.80;99.90
5930;DHT22;2990;48.746;9.236;2023-04-29T04:06:12;11.80;99.90
5930;DHT22;2990;48.746;9.236;2023-04-29T04:08:38;11.80;99.90
5930;DHT22;2990;48.746;9.236;2023-04-29T04:11:05;11.70;99.90
5930;DHT22;2990;48.746;9.236;2023-04-29T04:14:10;11.70;99.90
5930;DHT22;2990;48.746;9.236;2023-04-29T04:16:35;11.70;99.90
5930;DHT22;2990;48.746;9.236;2023-04-29T04:19:01;11.90;99.90
5930;DHT22;2990;48.746;9.236;2023-04-29T04:21:26;11.60;99.90
5930;DHT22;2990;48.746;9.236;2023-04-29T04:23:52;11.50;99.90
5930;DHT22;2990;48.746;9.236;2023-04-29T04:26:18;11.50;99.90
5930;DHT22;2990;48.746;9.236;2023-04-29T04:28:45;11.40;99.90
5930;DHT22;2990;48.746;9.236;2023-04-29T04:31:10;11.50;99.90
5930;DHT22;2990;48.746;9.236;2023-04-29T04:33:39;11.40;99.90
5930;DHT22;2990;48.746;9.236;2023-04-29T04:36:05;11.60;99.90
5930;DHT22;2990;48.746;9.236;2023-04-29T04:38:30;11.50;99.90
5930;DHT22;2990;48.746;9.236;2023-04-29T04:40:57;11.50;99.90
5930;DHT22;2990;48.746;9.236;2023-04-29T04:43:23;11.50;99.90
5930;DHT22;2990;48.746;9.236;2023-04-29T04:45:48;11.50;99.90
5930;DHT22;2990;48.746;9.236;2023-04-29T04:48:14;11.60;99.90
5930;DHT22;2990;48.746;9.236;2023-04-29T04:57:23;11.70;99.90
5930;DHT22;2990;48.746;9.236;2023-04-29T04:59:49;11.70;99.90
5930;DHT22;2990;48.746;9.236;2023-04-29T05:02:14;11.70;99.90
5930;DHT22;2990;48.746;9.236;2023-04-29T05:04:40;11.70;99.90
5930;DHT22;2990;48.746;9.236;2023-04-29T05:07:06;11.60;99.90
5930;DHT22;2990;48.746;9.236;2023-04-29T05:09:32;11.60;99.90
5930;DHT22;2990;48.746;9.236;2023-04-29T05:11:57;11.60;99.90
5930;DHT22;2990;48.746;9.236;2023-04-29T05:14:24;11.60;99.90
5930;DHT22;2990;48.746;9.236;2023-04-29T05:16:57;11.60;99.90
5930;DHT22;2990;48.746;9.236;2023-04-29T05:19:25;11.60;99.90
5930;DHT22;2990;48.746;9.236;2023-04-29T05:21:51;11.70;99.90
5930;DHT22;2990;48.746;9.236;2023-04-29T05:24:17;11.70;99.90
5930;DHT22;2990;48.746;9.236;2023-04-29T05:26:43;11.70;99.90
5930;DHT22;2990;48.746;9.236;2023-04-29T05:29:11;11.70;99.90
5930;DHT22;2990;48.746;9.236;2023-04-29T05:31:37;11.80;99.90
5930;DHT22;2990;48.746;9.236;2023-04-29T05:34:04;11.80;99.90
5930;DHT22;2990;48.746;9.236;2023-04-29T05:36:29;11.80;99.90
5930;DHT22;2990;48.746;9.236;2023-04-29T05:38:55;11.90;99.90
5930;DHT22;2990;48.746;9.236;2023-04-29T05:41:20;11.90;99.90
5930;DHT22;2990;48.746;9.236;2023-04-29T05:43:49;11.90;99.90
5930;DHT22;2990;48.746;9.236;2023-04-29T05:46:15;12.00;99.90
5930;DHT22;2990;48.746;9.236;2023-04-29T05:48:41;12.00;99.90
5930;DHT22;2990;48.746;9.236;2023-04-29T05:51:06;12.10;99.90
5930;DHT22;2990;48.746;9.236;2023-04-29T05:53:32;12.10;99.90
5930;DHT22;2990;48.746;9.236;2023-04-29T05:55:58;12.10;99.90
5930;DHT22;2990;48.746;9.236;2023-04-29T05:58:24;12.10;99.90
5930;DHT22;2990;48.746;9.236;2023-04-29T06:00:50;12.10;99.90
5930;DHT22;2990;48.746;9.236;2023-04-29T06:03:16;12.10;99.90
5930;DHT22;2990;48.746;9.236;2023-04-29T06:05:42;12.20;99.90
5930;DHT22;2990;48.746;9.236;2023-04-29T06:08:08;12.30;99.90
5930;DHT22;2990;48.746;9.236;2023-04-29T06:10:35;12.30;99.90
5930;DHT22;2990;48.746;9.236;2023-04-29T06:13:01;12.30;99.90
5930;DHT22;2990;48.746;9.236;2023-04-29T06:15:27;12.40;97.40
5930;DHT22;2990;48.746;9.236;2023-04-29T06:17:52;12.50;99.90
5930;DHT22;2990;48.746;9.236;2023-04-29T06:20:18;12.60;99.90
5930;DHT22;2990;48.746;9.236;2023-04-29T06:22:44;12.70;1.00
5930;DHT22;2990;48.746;9.236;2023-04-29T06:25:09;12.70;1.00
5930;DHT22;2990;48.746;9.236;2023-04-29T06:27:35;12.90;1.00
5930;DHT22;2990;48.746;9.236;2023-04-29T06:30:03;13.00;1.00
5930;DHT22;2990;48.746;9.236;2023-04-29T06:32:29;12.90;1.00
5930;DHT22;2990;48.746;9.236;2023-04-29T06:34:54;12.80;1.00
5930;DHT22;2990;48.746;9.236;2023-04-29T06:37:20;12.80;1.00
5930;DHT22;2990;48.746;9.236;2023-04-29T06:39:46;12.70;1.00
5930;DHT22;2990;48.746;9.236;2023-04-29T06:42:11;12.60;1.00
5930;DHT22;2990;48.746;9.236;2023-04-29T06:44:39;12.70;1.00
5930;DHT22;2990;48.746;9.236;2023-04-29T06:47:05;12.60;1.00
5930;DHT22;2990;48.746;9.236;2023-04-29T06:49:30;12.50;1.00
5930;DHT22;2990;48.746;9.236;2023-04-29T06:51:56;12.50;1.00
5930;DHT22;2990;48.746;9.236;2023-04-29T06:54:22;12.50;1.00
5930;DHT22;2990;48.746;9.236;2023-04-29T06:56:47;12.50;1.00
5930;DHT22;2990;48.746;9.236;2023-04-29T06:59:13;12.60;1.00
5930;DHT22;2990;48.746;9.236;2023-04-29T07:01:39;12.80;1.00
5930;DHT22;2990;48.746;9.236;2023-04-29T07:04:07;12.70;1.00
5930;DHT22;2990;48.746;9.236;2023-04-29T07:06:33;12.70;1.00
5930;DHT22;2990;48.746;9.236;2023-04-29T07:08:58;12.80;1.00
5930;DHT22;2990;48.746;9.236;2023-04-29T07:11:24;12.80;1.00
5930;DHT22;2990;48.746;9.236;2023-04-29T07:13:54;12.90;1.00
5930;DHT22;2990;48.746;9.236;2023-04-29T07:16:20;12.90;1.00
5930;DHT22;2990;48.746;9.236;2023-04-29T07:18:47;12.90;1.00
5930;DHT22;2990;48.746;9.236;2023-04-29T07:21:13;12.90;1.00
5930;DHT22;2990;48.746;9.236;2023-04-29T07:23:39;12.80;1.00
5930;DHT22;2990;48.746;9.236;2023-04-29T07:26:12;12.70;1.00
5930;DHT22;2990;48.746;9.236;2023-04-29T07:28:38;12.70;99.90
5930;DHT22;2990;48.746;9.236;2023-04-29T07:37:08;12.80;1.00
5930;DHT22;2990;48.746;9.236;2023-04-29T07:39:34;12.90;1.00
5930;DHT22;2990;48.746;9.236;2023-04-29T07:42:00;13.00;1.00
5930;DHT22;2990;48.746;9.236;2023-04-29T07:44:27;13.10;1.00
5930;DHT22;2990;48.746;9.236;2023-04-29T07:46:53;13.30;1.00
5930;DHT22;2990;48.746;9.236;2023-04-29T07:49:18;13.60;99.90
5930;DHT22;2990;48.746;9.236;2023-04-29T07:51:44;13.80;1.00
5930;DHT22;2990;48.746;9.236;2023-04-29T07:54:09;14.00;99.90
5930;DHT22;2990;48.746;9.236;2023-04-29T07:56:35;14.00;99.90
5930;DHT22;2990;48.746;9.236;2023-04-29T07:59:00;14.00;1.00
5930;DHT22;2990;48.746;9.236;2023-04-29T08:01:26;13.90;1.00
5930;DHT22;2990;48.746;9.236;2023-04-29T08:03:53;13.90;99.90
5930;DHT22;2990;48.746;9.236;2023-04-29T08:06:18;13.70;99.90
5930;DHT22;2990;48.746;9.236;2023-04-29T08:08:49;13.70;1.00
5930;DHT22;2990;48.746;9.236;2023-04-29T08:11:16;13.60;1.00
5930;DHT22;2990;48.746;9.236;2023-04-29T08:13:42;13.60;99.90
5930;DHT22;2990;48.746;9.236;2023-04-29T08:16:07;13.60;1.00
5930;DHT22;2990;48.746;9.236;2023-04-29T08:18:33;13.60;99.90
5930;DHT22;2990;48.746;9.236;2023-04-29T08:21:01;13.70;99.90
5930;DHT22;2990;48.746;9.236;2023-04-29T08:23:26;13.60;1.00
5930;DHT22;2990;48.746;9.236;2023-04-29T08:25:52;13.60;1.00
5930;DHT22;2990;48.746;9.236;2023-04-29T08:28:20;13.60;1.00
5930;DHT22;2990;48.746;9.236;2023-04-29T08:30:46;13.60;1.00
5930;DHT22;2990;48.746;9.236;2023-04-29T08:33:11;13.60;99.90
5930;DHT22;2990;48.746;9.236;2023-04-29T08:35:37;13.60;1.00
5930;DHT22;2990;48.746;9.236;2023-04-29T08:38:06;13.70;1.00
5930;DHT22;2990;48.746;9.236;2023-04-29T08:40:40;13.80;1.00
5930;DHT22;2990;48.746;9.236;2023-04-29T08:43:07;13.90;1.00
5930;DHT22;2990;48.746;9.236;2023-04-29T08:45:38;14.00;81.40
5930;DHT22;2990;48.746;9.236;2023-04-29T08:48:05;14.00;99.90
5930;DHT22;2990;48.746;9.236;2023-04-29T08:50:36;13.90;99.90
5930;DHT22;2990;48.746;9.236;2023-04-29T08:53:02;13.90;99.90
5930;DHT22;2990;48.746;9.236;2023-04-29T08:55:27;13.80;1.00
5930;DHT22;2990;48.746;9.236;2023-04-29T08:57:54;13.70;1.00
5930;DHT22;2990;48.746;9.236;2023-04-29T09:00:21;13.60;1.00
5930;DHT22;2990;48.746;9.236;2023-04-29T09:02:49;13.60;1.00
5930;DHT22;2990;48.746;9.236;2023-04-29T09:05:15;13.40;1.00
5930;DHT22;2990;48.746;9.236;2023-04-29T09:07:41;13.40;1.00
5930;DHT22;2990;48.746;9.236;2023-04-29T09:10:08;13.30;1.00
5930;DHT22;2990;48.746;9.236;2023-04-29T09:12:34;13.30;1.00
5930;DHT22;2990;48.746;9.236;2023-04-29T09:15:01;13.20;1.00
5930;DHT22;2990;48.746;9.236;2023-04-29T09:17:56;13.30;1.00
5930;DHT22;2990;48.746;9.236;2023-04-29T09:22:48;13.40;1.00
5930;DHT22;2990;48.746;9.236;2023-04-29T09:25:14;13.60;72.90
5930;DHT22;2990;48.746;9.236;2023-04-29T09:27:39;13.60;1.00
5930;DHT22;2990;48.746;9.236;2023-04-29T09:30:05;13.70;1.00
5930;DHT22;2990;48.746;9.236;2023-04-29T09:32:31;13.70;99.90
5930;DHT22;2990;48.746;9.236;2023-04-29T09:34:57;13.80;99.90
5930;DHT22;2990;48.746;9.236;2023-04-29T09:37:24;13.90;1.00
5930;DHT22;2990;48.746;9.236;2023-04-29T09:39:50;13.90;1.00
5930;DHT22;2990;48.746;9.236;2023-04-29T09:42:16;13.90;99.90
5930;DHT22;2990;48.746;9.236;2023-04-29T09:44:42;13.90;1.00
5930;DHT22;2990;48.746;9.236;2023-04-29T09:47:09;14.00;1.00
5930;DHT22;2990;48.746;9.236;2023-04-29T09:49:37;14.20;1.00
5930;DHT22;2990;48.746;9.236;2023-04-29T09:52:09;14.90;99.90
5930;DHT22;2990;48.746;9.236;2023-04-29T09:54:36;15.40;1.00
5930;DHT22;2990;48.746;9.236;2023-04-29T09:57:06;15.70;99.90
5930;DHT22;2990;48.746;9.236;2023-04-29T09:59:35;16.10;1.00
5930;DHT22;2990;48.746;9.236;2023-04-29T10:02:12;16.00;1.00
5930;DHT22;2990;48.746;9.236;2023-04-29T10:04:40;15.90;99.90
5930;DHT22;2990;48.746;9.236;2023-04-29T10:07:07;15.70;1.00
5930;DHT22;2990;48.746;9.236;2023-04-29T10:09:34;15.70;99.90
5930;DHT22;2990;48.746;9.236;2023-04-29T10:12:04;15.90;99.90
5930;DHT22;2990;48.746;9.236;2023-04-29T10:14:39;16.20;1.00
5930;DHT22;2990;48.746;9.236;2023-04-29T10:17:13;16.20;42.00
5930;DHT22;2990;48.746;9.236;2023-04-29T10:19:57;16.30;27.20
5930;DHT22;2990;48.746;9.236;2023-04-29T10:22:29;16.40;1.00
5930;DHT22;2990;48.746;9.236;2023-04-29T10:24:57;16.50;1.00
5930;DHT22;2990;48.746;9.236;2023-04-29T10:27:26;16.50;1.00
5930;DHT22;2990;48.746;9.236;2023-04-29T10:29:54;16.40;1.00
5930;DHT22;2990;48.746;9.236;2023-04-29T10:32:21;16.30;1.00
5930;DHT22;2990;48.746;9.236;2023-04-29T10:34:47;16.40;1.00
5930;DHT22;2990;48.746;9.236;2023-04-29T10:37:14;16.80;1.00
5930;DHT22;2990;48.746;9.236;2023-04-29T10:39:41;17.40;99.90
5930;DHT22;2990;48.746;9.236;2023-04-29T10:42:19;17.70;99.90
5930;DHT22;2990;48.746;9.236;2023-04-29T10:45:19;18.00;99.90
5930;DHT22;2990;48.746;9.236;2023-04-29T10:50:33;17.60;99.90
5930;DHT22;2990;48.746;9.236;2023-04-29T10:53:05;17.10;99.90
5930;DHT22;2990;48.746;9.236;2023-04-29T10:55:35;17.00;99.90
5930;DHT22;2990;48.746;9.236;2023-04-29T10:58:05;17.40;99.90
5930;DHT22;2990;48.746;9.236;2023-04-29T11:00:46;17.60;99.90
5930;DHT22;2990;48.746;9.236;2023-04-29T11:06:46;17.20;99.90
5930;DHT22;2990;48.746;9.236;2023-04-29T11:09:13;17.30;99.90
5930;DHT22;2990;48.746;9.236;2023-04-29T11:11:40;17.20;99.90
5930;DHT22;2990;48.746;9.236;2023-04-29T11:14:08;16.90;99.90
5930;DHT22;2990;48.746;9.236;2023-04-29T11:16:35;16.50;99.90
5930;DHT22;2990;48.746;9.236;2023-04-29T11:19:06;16.20;99.90
5930;DHT22;2990;48.746;9.236;2023-04-29T11:21:34;16.40;99.90
5930;DHT22;2990;48.746;9.236;2023-04-29T11:23:59;16.70;99.90
5930;DHT22;2990;48.746;9.236;2023-04-29T11:26:25;16.90;99.90
5930;DHT22;2990;48.746;9.236;2023-04-29T11:28:52;17.00;99.90
5930;DHT22;2990;48.746;9.236;2023-04-29T11:31:18;17.30;99.90
5930;DHT22;2990;48.746;9.236;2023-04-29T11:33:45;17.30;99.90
5930;DHT22;2990;48.746;9.236;2023-04-29T11:36:11;17.20;99.90
5930;DHT22;2990;48.746;9.236;2023-04-29T11:38:39;17.10;99.90
5930;DHT22;2990;48.746;9.236;2023-04-29T11:41:09;17.30;99.90
5930;DHT22;2990;48.746;9.236;2023-04-29T11:43:35;17.60;99.90
5930;DHT22;2990;48.746;9.236;2023-04-29T11:46:11;17.70;99.90
5930;DHT22;2990;48.746;9.236;2023-04-29T11:48:47;17.80;99.90
5930;DHT22;2990;48.746;9.236;2023-04-29T11:51:14;18.10;99.90
5930;DHT22;2990;48.746;9.236;2023-04-29T11:53:40;17.90;99.90
5930;DHT22;2990;48.746;9.236;2023-04-29T11:56:10;17.70;99.90
5930;DHT22;2990;48.746;9.236;2023-04-29T11:58:36;17.50;99.90
5930;DHT22;2990;48.746;9.236;2023-04-29T12:01:03;17.50;99.90
5930;DHT22;2990;48.746;9.236;2023-04-29T12:03:30;17.60;99.90
5930;DHT22;2990;48.746;9.236;2023-04-29T12:05:56;17.70;99.90
5930;DHT22;2990;48.746;9.236;2023-04-29T12:08:22;17.80;99.90
5930;DHT22;2990;48.746;9.236;2023-04-29T12:10:48;18.10;99.90
5930;DHT22;2990;48.746;9.236;2023-04-29T12:13:18;17.90;99.90
5930;DHT22;2990;48.746;9.236;2023-04-29T12:15:47;17.80;99.90
5930;DHT22;2990;48.746;9.236;2023-04-29T12:18:14;17.70;99.90
5930;DHT22;2990;48.746;9.236;2023-04-29T12:20:41;17.30;99.90
5930;DHT22;2990;48.746;9.236;2023-04-29T12:23:17;17.10;99.90
5930;DHT22;2990;48.746;9.236;2023-04-29T12:25:51;16.90;99.90
5930;DHT22;2990;48.746;9.236;2023-04-29T12:28:25;17.00;99.90
5930;DHT22;2990;48.746;9.236;2023-04-29T12:30:52;17.00;99.90
5930;DHT22;2990;48.746;9.236;2023-04-29T12:33:26;16.90;99.90
5930;DHT22;2990;48.746;9.236;2023-04-29T12:35:57;16.80;99.90
5930;DHT22;2990;48.746;9.236;2023-04-29T12:38:30;17.00;99.90
5930;DHT22;2990;48.746;9.236;2023-04-29T12:40:58;17.00;99.90
5930;DHT22;2990;48.746;9.236;2023-04-29T12:43:28;17.20;99.90
5930;DHT22;2990;48.746;9.236;2023-04-29T12:46:03;17.60;99.90
5930;DHT22;2990;48.746;9.236;2023-04-29T12:48:33;17.60;99.90
5930;DHT22;2990;48.746;9.236;2023-04-29T12:51:01;17.50;99.90
5930;DHT22;2990;48.746;9.236;2023-04-29T12:53:31;17.40;99.90
5930;DHT22;2990;48.746;9.236;2023-04-29T13:03:06;17.40;99.90
5930;DHT22;2990;48.746;9.236;2023-04-29T13:05:36;17.30;99.90
5930;DHT22;2990;48.746;9.236;2023-04-29T13:08:05;17.50;99.90
5930;DHT22;2990;48.746;9.236;2023-04-29T13:10:34;17.50;99.90
5930;DHT22;2990;48.746;9.236;2023-04-29T13:13:03;17.50;99.90
5930;DHT22;2990;48.746;9.236;2023-04-29T13:15:28;17.50;99.90
5930;DHT22;2990;48.746;9.236;2023-04-29T13:18:01;17.70;99.90
5930;DHT22;2990;48.746;9.236;2023-04-29T13:20:31;17.90;99.90
5930;DHT22;2990;48.746;9.236;2023-04-29T13:23:00;18.10;99.90
5930;DHT22;2990;48.746;9.236;2023-04-29T13:25:25;18.00;99.90
5930;DHT22;2990;48.746;9.236;2023-04-29T13:27:51;17.80;99.90
5930;DHT22;2990;48.746;9.236;2023-04-29T13:30:16;17.90;99.90
5930;DHT22;2990;48.746;9.236;2023-04-29T13:32:42;17.80;99.90
5930;DHT22;2990;48.746;9.236;2023-04-29T13:35:08;18.00;99.90
5930;DHT22;2990;48.746;9.236;2023-04-29T13:37:34;18.30;99.90
5930;DHT22;2990;48.746;9.236;2023-04-29T13:40:00;18.30;99.90
5930;DHT22;2990;48.746;9.236;2023-04-29T13:42:25;18.20;99.90
5930;DHT22;2990;48.746;9.236;2023-04-29T13:44:51;18.20;99.90
5930;DHT22;2990;48.746;9.236;2023-04-29T13:47:18;18.10;99.90
5930;DHT22;2990;48.746;9.236;2023-04-29T13:49:43;17.90;99.90
5930;DHT22;2990;48.746;9.236;2023-04-29T13:52:10;17.70;99.90
5930;DHT22;2990;48.746;9.236;2023-04-29T13:54:35;17.40;99.90
5930;DHT22;2990;48.746;9.236;2023-04-29T13:57:01;16.90;99.90
5930;DHT22;2990;48.746;9.236;2023-04-29T13:59:29;16.60;99.90
5930;DHT22;2990;48.746;9.236;2023-04-29T14:01:55;16.50;99.90
5930;DHT22;2990;48.746;9.236;2023-04-29T14:04:21;16.60;99.90
5930;DHT22;2990;48.746;9.236;2023-04-29T14:06:46;16.40;99.90
5930;DHT22;2990;48.746;9.236;2023-04-29T14:09:12;16.10;99.90
5930;DHT22;2990;48.746;9.236;2023-04-29T14:11:38;16.00;99.90
5930;DHT22;2990;48.746;9.236;2023-04-29T14:14:03;16.10;99.90
5930;DHT22;2990;48.746;9.236;2023-04-29T14:16:29;16.30;99.90
5930;DHT22;2990;48.746;9.236;2023-04-29T14:18:58;16.50;99.90
5930;DHT22;2990;48.746;9.236;2023-04-29T14:21:24;16.60;99.90
5930;DHT22;2990;48.746;9.236;2023-04-29T14:23:50;16.40;99.90
5930;DHT22;2990;48.746;9.236;2023-04-29T14:29:51;16.10;99.90
5930;DHT22;2990;48.746;9.236;2023-04-29T14:32:17;16.00;99.90
5930;DHT22;2990;48.746;9.236;2023-04-29T14:45:28;16.30;99.90
5930;DHT22;2990;48.746;9.236;2023-04-29T14:50:51;16.60;99.90
5930;DHT22;2990;48.746;9.236;2023-04-29T14:53:17;16.50;99.90
5930;DHT22;2990;48.746;9.236;2023-04-29T14:55:43;16.40;99.90
5930;DHT22;2990;48.746;9.236;2023-04-29T14:58:18;16.20;99.90
5930;DHT22;2990;48.746;9.236;2023-04-29T15:35:23;14.90;99.90
5930;DHT22;2990;48.746;9.236;2023-04-29T15:38:19;14.90;99.90
5930;DHT22;2990;48.746;9.236;2023-04-29T15:40:51;14.90;99.90
5930;DHT22;2990;48.746;9.236;2023-04-29T15:49:57;14.90;99.90
5930;DHT22;2990;48.746;9.236;2023-04-29T15:52:55;14.70;99.90
5930;DHT22;2990;48.746;9.236;2023-04-29T15:59:18;14.70;99.90
5930;DHT22;2990;48.746;9.236;2023-04-29T16:49:14;14.30;1.00
5930;DHT22;2990;48.746;9.236;2023-04-29T16:51:50;14.30;1.00
5930;DHT22;2990;48.746;9.236;2023-04-29T16:54:16;14.30;1.00
5930;DHT22;2990;48.746;9.236;2023-04-29T18:09:29;12.60;1.00
5930;DHT22;2990;48.746;9.236;2023-04-29T18:54:30;12.10;1.00
5930;DHT22;2990;48.746;9.236;2023-04-29T18:56:56;12.00;1.00
5930;DHT22;2990;48.746;9.236;2023-04-29T18:59:23;12.00;1.00
5930;DHT22;2990;48.746;9.236;2023-04-29T19:01:51;12.00;1.00
5930;DHT22;2990;48.746;9.236;2023-04-29T19:04:17;12.00;1.00
5930;DHT22;2990;48.746;9.236;2023-04-29T19:06:43;12.00;1.00
5930;DHT22;2990;48.746;9.236;2023-04-29T19:09:09;12.00;1.00
5930;DHT22;2990;48.746;9.236;2023-04-29T19:11:38;11.90;99.90
5930;DHT22;2990;48.746;9.236;2023-04-29T19:14:04;11.90;1.00
5930;DHT22;2990;48.746;9.236;2023-04-29T19:16:48;11.90;99.90
5930;DHT22;2990;48.746;9.236;2023-04-29T19:19:14;11.90;1.00
5930;DHT22;2990;48.746;9.236;2023-04-29T19:21:39;11.90;1.00
5930;DHT22;2990;48.746;9.236;2023-04-29T19:24:05;11.90;99.90
5930;DHT22;2990;48.746;9.236;2023-04-29T19:29:04;11.80;1.00
5930;DHT22;2990;48.746;9.236;2023-04-29T19:31:30;11.80;13.40
5930;DHT22;2990;48.746;9.236;2023-04-29T19:33:58;11.80;1.00
5930;DHT22;2990;48.746;9.236;2023-04-29T19:36:50;11.80;1.00
5930;DHT22;2990;48.746;9.236;2023-04-29T19:39:18;11.90;1.00
5930;DHT22;2990;48.746;9.236;2023-04-29T19:41:44;11.70;1.00
5930;DHT22;2990;48.746;9.236;2023-04-29T19:44:12;11.70;99.90
5930;DHT22;2990;48.746;9.236;2023-04-29T19:46:38;11.60;99.90
5930;DHT22;2990;48.746;9.236;2023-04-29T19:49:05;11.60;1.00
5930;DHT22;2990;48.746;9.236;2023-04-29T19:51:34;11.60;99.90
5930;DHT22;2990;48.746;9.236;2023-04-29T19:54:00;11.60;99.90
5930;DHT22;2990;48.746;9.236;2023-04-29T19:56:35;11.60;1.00
5930;DHT22;2990;48.746;9.236;2023-04-29T19:59:00;11.70;95.70
5930;DHT22;2990;48.746;9.236;2023-04-29T20:01:26;11.70;1.00
5930;DHT22;2990;48.746;9.236;2023-04-29T20:03:52;11.60;99.90
5930;DHT22;2990;48.746;9.236;2023-04-29T20:06:17;11.60;1.00
5930;DHT22;2990;48.746;9.236;2023-04-29T20:11:50;11.60;1.00
5930;DHT22;2990;48.746;9.236;2023-04-29T20:14:16;11.60;60.10
5930;DHT22;2990;48.746;9.236;2023-04-29T20:16:42;11.60;99.90
5930;DHT22;2990;48.746;9.236;2023-04-29T20:19:07;11.60;1.00
5930;DHT22;2990;48.746;9.236;2023-04-29T20:21:36;11.60;1.00
5930;DHT22;2990;48.746;9.236;2023-04-29T20:24:03;11.60;1.00
5930;DHT22;2990;48.746;9.236;2023-04-29T20:26:41;11.60;99.90
5930;DHT22;2990;48.746;9.236;2023-04-29T20:29:07;11.60;1.00
5930;DHT22;2990;48.746;9.236;2023-04-29T20:31:32;11.50;1.00